sensor_id;sensor_type;location;lat;lon;timestamp;P1;durP1;ratioP1;P2;durP2;ratioP2
35364;SDS011;21464;48.112;11.530;2022-11-20T00:02:06;2.47;;;1.97;;
35364;SDS011;21464;48.112;11.530;2022-11-20T00:04:32;3.53;;;2.47;;
35364;SDS011;21464;48.112;11.530;2022-11-20T00:06:57;3.60;;;2.70;;
35364;SDS011;21464;48.112;11.530;2022-11-20T00:09:23;2.37;;;1.97;;
35364;SDS011;21464;48.112;11.530;2022-11-20T00:11:49;2.40;;;2.20;;
35364;SDS011;21464;48.112;11.530;2022-11-20T00:14:15;2.50;;;2.30;;
35364;SDS011;21464;48.112;11.530;2022-11-20T00:16:41;2.20;;;2.10;;
35364;SDS011;21464;48.112;11.530;2022-11-20T00:19:07;2.47;;;2.27;;
35364;SDS011;21464;48.112;11.530;2022-11-20T00:21:33;2.93;;;2.70;;
35364;SDS011;21464;48.112;11.530;2022-11-20T00:23:59;2.30;;;2.10;;
35364;SDS011;21464;48.112;11.530;2022-11-20T00:26:25;2.60;;;2.40;;
35364;SDS011;21464;48.112;11.530;2022-11-20T00:28:56;3.03;;;2.10;;
35364;SDS011;21464;48.112;11.530;2022-11-20T00:31:22;2.93;;;2.47;;
35364;SDS011;21464;48.112;11.530;2022-11-20T00:33:48;3.00;;;2.23;;
35364;SDS011;21464;48.112;11.530;2022-11-20T00:36:15;2.63;;;2.43;;
35364;SDS011;21464;48.112;11.530;2022-11-20T00:38:42;2.47;;;2.30;;
35364;SDS011;21464;48.112;11.530;2022-11-20T00:41:08;2.77;;;2.33;;
35364;SDS011;21464;48.112;11.530;2022-11-20T00:43:35;3.30;;;2.90;;
35364;SDS011;21464;48.112;11.530;2022-11-20T00:46:01;2.70;;;2.50;;
35364;SDS011;21464;48.112;11.530;2022-11-20T00:48:27;2.40;;;2.20;;
35364;SDS011;21464;48.112;11.530;2022-11-20T00:50:54;2.83;;;2.43;;
35364;SDS011;21464;48.112;11.530;2022-11-20T00:53:20;2.53;;;2.33;;
35364;SDS011;21464;48.112;11.530;2022-11-20T00:55:59;3.60;;;2.60;;
35364;SDS011;21464;48.112;11.530;2022-11-20T00:58:29;2.50;;;2.23;;
35364;SDS011;21464;48.112;11.530;2022-11-20T01:01:03;3.57;;;2.87;;
35364;SDS011;21464;48.112;11.530;2022-11-20T01:03:32;3.30;;;2.53;;
35364;SDS011;21464;48.112;11.530;2022-11-20T01:05:59;3.33;;;2.50;;
35364;SDS011;21464;48.112;11.530;2022-11-20T01:08:25;2.83;;;2.60;;
35364;SDS011;21464;48.112;11.530;2022-11-20T01:10:51;2.80;;;2.60;;
35364;SDS011;21464;48.112;11.530;2022-11-20T01:13:17;3.03;;;2.40;;
35364;SDS011;21464;48.112;11.530;2022-11-20T01:18:34;2.87;;;2.47;;
35364;SDS011;21464;48.112;11.530;2022-11-20T01:21:01;2.63;;;2.47;;
35364;SDS011;21464;48.112;11.530;2022-11-20T01:23:30;3.27;;;2.97;;
35364;SDS011;21464;48.112;11.530;2022-11-20T01:25:56;3.87;;;2.90;;
35364;SDS011;21464;48.112;11.530;2022-11-20T01:28:22;3.07;;;2.83;;
35364;SDS011;21464;48.112;11.530;2022-11-20T01:30:47;3.47;;;2.53;;
35364;SDS011;21464;48.112;11.530;2022-11-20T01:33:13;2.57;;;2.30;;
35364;SDS011;21464;48.112;11.530;2022-11-20T01:35:39;2.57;;;2.37;;
35364;SDS011;21464;48.112;11.530;2022-11-20T01:38:05;2.80;;;2.30;;
35364;SDS011;21464;48.112;11.530;2022-11-20T01:40:31;6.57;;;2.90;;
35364;SDS011;21464;48.112;11.530;2022-11-20T01:43:12;2.80;;;2.60;;
35364;SDS011;21464;48.112;11.530;2022-11-20T01:48:36;3.40;;;2.50;;
35364;SDS011;21464;48.112;11.530;2022-11-20T01:51:04;3.60;;;2.70;;
35364;SDS011;21464;48.112;11.530;2022-11-20T01:53:32;2.83;;;2.63;;
35364;SDS011;21464;48.112;11.530;2022-11-20T01:56:00;3.50;;;2.60;;
35364;SDS011;21464;48.112;11.530;2022-11-20T01:58:28;3.40;;;3.00;;
35364;SDS011;21464;48.112;11.530;2022-11-20T02:00:55;2.83;;;2.53;;
35364;SDS011;21464;48.112;11.530;2022-11-20T02:03:21;3.27;;;2.40;;
35364;SDS011;21464;48.112;11.530;2022-11-20T02:05:49;4.17;;;2.40;;
35364;SDS011;21464;48.112;11.530;2022-11-20T02:08:17;2.57;;;2.37;;
35364;SDS011;21464;48.112;11.530;2022-11-20T02:10:43;2.83;;;2.63;;
35364;SDS011;21464;48.112;11.530;2022-11-20T02:13:09;2.43;;;2.23;;
35364;SDS011;21464;48.112;11.530;2022-11-20T02:15:53;2.80;;;2.60;;
35364;SDS011;21464;48.112;11.530;2022-11-20T02:18:20;2.93;;;2.73;;
35364;SDS011;21464;48.112;11.530;2022-11-20T02:20:47;2.80;;;2.60;;
35364;SDS011;21464;48.112;11.530;2022-11-20T02:23:19;2.73;;;2.50;;
35364;SDS011;21464;48.112;11.530;2022-11-20T02:25:48;2.53;;;2.33;;
35364;SDS011;21464;48.112;11.530;2022-11-20T02:28:15;2.93;;;2.60;;
35364;SDS011;21464;48.112;11.530;2022-11-20T02:30:41;3.00;;;2.80;;
35364;SDS011;21464;48.112;11.530;2022-11-20T02:33:07;3.00;;;2.80;;
35364;SDS011;21464;48.112;11.530;2022-11-20T02:37:59;3.03;;;2.73;;
35364;SDS011;21464;48.112;11.530;2022-11-20T02:40:26;2.87;;;2.67;;
35364;SDS011;21464;48.112;11.530;2022-11-20T02:42:52;3.10;;;2.90;;
35364;SDS011;21464;48.112;11.530;2022-11-20T02:45:18;3.53;;;3.23;;
35364;SDS011;21464;48.112;11.530;2022-11-20T02:47:44;3.20;;;2.93;;
35364;SDS011;21464;48.112;11.530;2022-11-20T02:50:10;2.97;;;2.77;;
35364;SDS011;21464;48.112;11.530;2022-11-20T02:52:36;2.63;;;2.43;;
35364;SDS011;21464;48.112;11.530;2022-11-20T02:55:02;3.70;;;3.33;;
35364;SDS011;21464;48.112;11.530;2022-11-20T02:57:28;2.73;;;2.53;;
35364;SDS011;21464;48.112;11.530;2022-11-20T02:59:54;3.00;;;2.80;;
35364;SDS011;21464;48.112;11.530;2022-11-20T03:02:20;2.93;;;2.70;;
35364;SDS011;21464;48.112;11.530;2022-11-20T03:04:46;3.43;;;3.13;;
35364;SDS011;21464;48.112;11.530;2022-11-20T03:07:12;3.93;;;3.57;;
35364;SDS011;21464;48.112;11.530;2022-11-20T03:09:37;3.40;;;2.90;;
35364;SDS011;21464;48.112;11.530;2022-11-20T03:12:03;3.90;;;3.33;;
35364;SDS011;21464;48.112;11.530;2022-11-20T03:14:29;5.70;;;3.33;;
35364;SDS011;21464;48.112;11.530;2022-11-20T03:16:55;2.97;;;2.70;;
35364;SDS011;21464;48.112;11.530;2022-11-20T03:19:21;3.27;;;2.90;;
35364;SDS011;21464;48.112;11.530;2022-11-20T03:21:47;4.60;;;3.27;;
35364;SDS011;21464;48.112;11.530;2022-11-20T03:24:13;3.30;;;3.00;;
35364;SDS011;21464;48.112;11.530;2022-11-20T03:26:40;3.13;;;2.83;;
35364;SDS011;21464;48.112;11.530;2022-11-20T03:29:06;3.23;;;3.00;;
35364;SDS011;21464;48.112;11.530;2022-11-20T03:31:36;3.10;;;2.80;;
35364;SDS011;21464;48.112;11.530;2022-11-20T03:34:02;3.70;;;3.00;;
35364;SDS011;21464;48.112;11.530;2022-11-20T03:36:29;3.03;;;2.83;;
35364;SDS011;21464;48.112;11.530;2022-11-20T03:38:55;2.77;;;2.60;;
35364;SDS011;21464;48.112;11.530;2022-11-20T03:41:26;3.60;;;3.23;;
35364;SDS011;21464;48.112;11.530;2022-11-20T03:46:18;2.80;;;2.60;;
35364;SDS011;21464;48.112;11.530;2022-11-20T03:48:44;3.40;;;3.10;;
35364;SDS011;21464;48.112;11.530;2022-11-20T03:51:18;3.07;;;2.87;;
35364;SDS011;21464;48.112;11.530;2022-11-20T03:53:45;3.77;;;3.47;;
35364;SDS011;21464;48.112;11.530;2022-11-20T03:56:11;3.00;;;2.80;;
35364;SDS011;21464;48.112;11.530;2022-11-20T03:58:39;3.20;;;3.00;;
35364;SDS011;21464;48.112;11.530;2022-11-20T04:01:09;3.43;;;2.90;;
35364;SDS011;21464;48.112;11.530;2022-11-20T04:03:36;2.90;;;2.70;;
35364;SDS011;21464;48.112;11.530;2022-11-20T04:06:03;3.27;;;2.93;;
35364;SDS011;21464;48.112;11.530;2022-11-20T04:08:30;3.07;;;2.70;;
35364;SDS011;21464;48.112;11.530;2022-11-20T04:10:56;3.40;;;3.10;;
35364;SDS011;21464;48.112;11.530;2022-11-20T04:13:21;3.30;;;3.00;;
35364;SDS011;21464;48.112;11.530;2022-11-20T04:15:47;3.40;;;3.10;;
35364;SDS011;21464;48.112;11.530;2022-11-20T04:18:13;2.97;;;2.77;;
35364;SDS011;21464;48.112;11.530;2022-11-20T04:20:39;2.77;;;2.57;;
35364;SDS011;21464;48.112;11.530;2022-11-20T04:23:05;3.33;;;2.70;;
35364;SDS011;21464;48.112;11.530;2022-11-20T04:25:31;5.20;;;2.77;;
35364;SDS011;21464;48.112;11.530;2022-11-20T04:27:57;2.70;;;2.50;;
35364;SDS011;21464;48.112;11.530;2022-11-20T04:30:23;3.10;;;2.80;;
35364;SDS011;21464;48.112;11.530;2022-11-20T04:32:49;3.53;;;2.87;;
35364;SDS011;21464;48.112;11.530;2022-11-20T04:35:14;3.70;;;3.10;;
35364;SDS011;21464;48.112;11.530;2022-11-20T04:37:40;3.83;;;3.50;;
35364;SDS011;21464;48.112;11.530;2022-11-20T04:40:06;3.33;;;3.03;;
35364;SDS011;21464;48.112;11.530;2022-11-20T04:42:32;3.47;;;3.17;;
35364;SDS011;21464;48.112;11.530;2022-11-20T04:44:58;3.30;;;3.10;;
35364;SDS011;21464;48.112;11.530;2022-11-20T04:47:24;3.60;;;3.23;;
35364;SDS011;21464;48.112;11.530;2022-11-20T04:49:50;4.47;;;3.27;;
35364;SDS011;21464;48.112;11.530;2022-11-20T04:52:16;3.43;;;3.23;;
35364;SDS011;21464;48.112;11.530;2022-11-20T04:54:42;3.50;;;3.20;;
35364;SDS011;21464;48.112;11.530;2022-11-20T04:57:08;3.30;;;3.00;;
35364;SDS011;21464;48.112;11.530;2022-11-20T04:59:34;3.80;;;3.50;;
35364;SDS011;21464;48.112;11.530;2022-11-20T05:02:00;3.77;;;3.47;;
35364;SDS011;21464;48.112;11.530;2022-11-20T05:04:26;3.40;;;3.20;;
35364;SDS011;21464;48.112;11.530;2022-11-20T05:06:52;3.70;;;3.40;;
35364;SDS011;21464;48.112;11.530;2022-11-20T05:09:17;3.60;;;3.30;;
35364;SDS011;21464;48.112;11.530;2022-11-20T05:11:43;3.30;;;3.00;;
35364;SDS011;21464;48.112;11.530;2022-11-20T05:14:09;3.67;;;3.37;;
35364;SDS011;21464;48.112;11.530;2022-11-20T05:16:35;3.90;;;3.53;;
35364;SDS011;21464;48.112;11.530;2022-11-20T05:19:04;4.10;;;3.20;;
35364;SDS011;21464;48.112;11.530;2022-11-20T05:21:30;3.53;;;3.23;;
35364;SDS011;21464;48.112;11.530;2022-11-20T05:23:56;3.43;;;3.10;;
35364;SDS011;21464;48.112;11.530;2022-11-20T05:26:22;3.43;;;3.23;;
35364;SDS011;21464;48.112;11.530;2022-11-20T05:28:49;3.57;;;3.27;;
35364;SDS011;21464;48.112;11.530;2022-11-20T05:31:17;3.87;;;3.57;;
35364;SDS011;21464;48.112;11.530;2022-11-20T05:33:43;3.17;;;2.87;;
35364;SDS011;21464;48.112;11.530;2022-11-20T05:36:10;3.50;;;3.20;;
35364;SDS011;21464;48.112;11.530;2022-11-20T05:38:36;3.33;;;3.03;;
35364;SDS011;21464;48.112;11.530;2022-11-20T05:41:03;3.40;;;3.10;;
35364;SDS011;21464;48.112;11.530;2022-11-20T05:43:31;3.50;;;3.20;;
35364;SDS011;21464;48.112;11.530;2022-11-20T05:45:57;3.30;;;3.10;;
35364;SDS011;21464;48.112;11.530;2022-11-20T05:48:23;3.00;;;2.80;;
35364;SDS011;21464;48.112;11.530;2022-11-20T05:50:49;3.40;;;3.20;;
35364;SDS011;21464;48.112;11.530;2022-11-20T05:53:14;3.43;;;3.13;;
35364;SDS011;21464;48.112;11.530;2022-11-20T05:55:40;4.60;;;3.10;;
35364;SDS011;21464;48.112;11.530;2022-11-20T05:58:06;3.43;;;3.00;;
35364;SDS011;21464;48.112;11.530;2022-11-20T06:00:32;3.20;;;3.00;;
35364;SDS011;21464;48.112;11.530;2022-11-20T06:02:58;3.43;;;3.13;;
35364;SDS011;21464;48.112;11.530;2022-11-20T06:05:24;3.13;;;2.93;;
35364;SDS011;21464;48.112;11.530;2022-11-20T06:07:50;3.07;;;2.87;;
35364;SDS011;21464;48.112;11.530;2022-11-20T06:10:16;2.60;;;2.40;;
35364;SDS011;21464;48.112;11.530;2022-11-20T06:12:41;3.00;;;2.70;;
35364;SDS011;21464;48.112;11.530;2022-11-20T06:15:07;2.80;;;2.60;;
35364;SDS011;21464;48.112;11.530;2022-11-20T06:17:33;2.97;;;2.77;;
35364;SDS011;21464;48.112;11.530;2022-11-20T06:19:59;2.90;;;2.70;;
35364;SDS011;21464;48.112;11.530;2022-11-20T06:22:25;2.83;;;2.63;;
35364;SDS011;21464;48.112;11.530;2022-11-20T06:24:51;3.00;;;2.60;;
35364;SDS011;21464;48.112;11.530;2022-11-20T06:27:17;3.80;;;2.57;;
35364;SDS011;21464;48.112;11.530;2022-11-20T06:29:43;3.17;;;2.50;;
35364;SDS011;21464;48.112;11.530;2022-11-20T06:32:09;2.50;;;2.23;;
35364;SDS011;21464;48.112;11.530;2022-11-20T06:34:35;2.33;;;2.13;;
35364;SDS011;21464;48.112;11.530;2022-11-20T06:37:01;2.43;;;2.00;;
35364;SDS011;21464;48.112;11.530;2022-11-20T06:39:27;2.80;;;2.60;;
35364;SDS011;21464;48.112;11.530;2022-11-20T06:41:52;2.50;;;2.30;;
35364;SDS011;21464;48.112;11.530;2022-11-20T06:44:18;2.47;;;2.27;;
35364;SDS011;21464;48.112;11.530;2022-11-20T06:46:52;2.50;;;2.30;;
35364;SDS011;21464;48.112;11.530;2022-11-20T06:49:19;2.70;;;2.17;;
35364;SDS011;21464;48.112;11.530;2022-11-20T06:51:45;2.23;;;1.87;;
35364;SDS011;21464;48.112;11.530;2022-11-20T06:54:11;2.27;;;2.03;;
35364;SDS011;21464;48.112;11.530;2022-11-20T06:56:37;1.97;;;1.87;;
35364;SDS011;21464;48.112;11.530;2022-11-20T06:59:04;3.23;;;2.40;;
35364;SDS011;21464;48.112;11.530;2022-11-20T07:01:30;2.20;;;2.00;;
35364;SDS011;21464;48.112;11.530;2022-11-20T07:03:56;2.03;;;1.77;;
35364;SDS011;21464;48.112;11.530;2022-11-20T07:06:22;1.90;;;1.80;;
35364;SDS011;21464;48.112;11.530;2022-11-20T07:08:49;2.40;;;2.20;;
35364;SDS011;21464;48.112;11.530;2022-11-20T07:11:16;2.10;;;2.00;;
35364;SDS011;21464;48.112;11.530;2022-11-20T07:13:41;2.87;;;2.57;;
35364;SDS011;21464;48.112;11.530;2022-11-20T07:16:07;2.50;;;2.37;;
35364;SDS011;21464;48.112;11.530;2022-11-20T07:18:34;4.17;;;2.50;;
35364;SDS011;21464;48.112;11.530;2022-11-20T07:21:00;2.90;;;2.60;;
35364;SDS011;21464;48.112;11.530;2022-11-20T07:23:27;3.33;;;3.13;;
35364;SDS011;21464;48.112;11.530;2022-11-20T07:25:53;3.13;;;2.93;;
35364;SDS011;21464;48.112;11.530;2022-11-20T07:28:18;3.53;;;3.20;;
35364;SDS011;21464;48.112;11.530;2022-11-20T07:30:49;4.00;;;3.60;;
35364;SDS011;21464;48.112;11.530;2022-11-20T07:33:15;5.77;;;3.20;;
35364;SDS011;21464;48.112;11.530;2022-11-20T07:35:41;3.27;;;2.90;;
35364;SDS011;21464;48.112;11.530;2022-11-20T07:38:07;3.40;;;3.13;;
35364;SDS011;21464;48.112;11.530;2022-11-20T07:40:33;3.20;;;2.93;;
35364;SDS011;21464;48.112;11.530;2022-11-20T07:42:59;3.30;;;3.00;;
35364;SDS011;21464;48.112;11.530;2022-11-20T07:45:25;3.20;;;2.90;;
35364;SDS011;21464;48.112;11.530;2022-11-20T07:47:51;3.93;;;3.50;;
35364;SDS011;21464;48.112;11.530;2022-11-20T07:50:17;3.23;;;2.93;;
35364;SDS011;21464;48.112;11.530;2022-11-20T07:52:43;2.83;;;2.63;;
35364;SDS011;21464;48.112;11.530;2022-11-20T07:55:09;3.30;;;3.00;;
35364;SDS011;21464;48.112;11.530;2022-11-20T07:57:35;2.90;;;2.67;;
35364;SDS011;21464;48.112;11.530;2022-11-20T08:00:02;3.90;;;2.87;;
35364;SDS011;21464;48.112;11.530;2022-11-20T08:02:38;2.67;;;2.40;;
35364;SDS011;21464;48.112;11.530;2022-11-20T08:05:05;2.90;;;2.70;;
35364;SDS011;21464;48.112;11.530;2022-11-20T08:07:38;3.10;;;2.90;;
35364;SDS011;21464;48.112;11.530;2022-11-20T08:10:04;2.60;;;2.40;;
35364;SDS011;21464;48.112;11.530;2022-11-20T08:12:30;2.90;;;2.70;;
35364;SDS011;21464;48.112;11.530;2022-11-20T08:15:15;2.93;;;2.17;;
35364;SDS011;21464;48.112;11.530;2022-11-20T08:17:41;3.47;;;2.57;;
35364;SDS011;21464;48.112;11.530;2022-11-20T08:20:07;2.63;;;2.40;;
35364;SDS011;21464;48.112;11.530;2022-11-20T08:22:33;2.40;;;2.20;;
35364;SDS011;21464;48.112;11.530;2022-11-20T08:24:59;3.40;;;2.73;;
35364;SDS011;21464;48.112;11.530;2022-11-20T08:27:25;2.53;;;2.30;;
35364;SDS011;21464;48.112;11.530;2022-11-20T08:29:51;2.80;;;2.50;;
35364;SDS011;21464;48.112;11.530;2022-11-20T08:32:16;2.57;;;2.30;;
35364;SDS011;21464;48.112;11.530;2022-11-20T08:34:42;2.37;;;2.23;;
35364;SDS011;21464;48.112;11.530;2022-11-20T08:37:08;2.73;;;2.37;;
35364;SDS011;21464;48.112;11.530;2022-11-20T08:39:34;2.73;;;2.27;;
35364;SDS011;21464;48.112;11.530;2022-11-20T08:42:00;2.87;;;2.40;;
35364;SDS011;21464;48.112;11.530;2022-11-20T08:44:26;2.53;;;2.33;;
35364;SDS011;21464;48.112;11.530;2022-11-20T08:46:52;3.20;;;2.40;;
35364;SDS011;21464;48.112;11.530;2022-11-20T08:49:18;2.47;;;2.20;;
35364;SDS011;21464;48.112;11.530;2022-11-20T08:51:44;2.47;;;2.30;;
35364;SDS011;21464;48.112;11.530;2022-11-20T08:54:10;2.50;;;2.40;;
35364;SDS011;21464;48.112;11.530;2022-11-20T08:56:36;3.40;;;2.40;;
35364;SDS011;21464;48.112;11.530;2022-11-20T08:59:02;2.80;;;2.43;;
35364;SDS011;21464;48.112;11.530;2022-11-20T09:01:28;4.07;;;2.40;;
35364;SDS011;21464;48.112;11.530;2022-11-20T09:03:55;2.27;;;2.10;;
35364;SDS011;21464;48.112;11.530;2022-11-20T09:06:22;2.33;;;2.20;;
35364;SDS011;21464;48.112;11.530;2022-11-20T09:08:53;2.57;;;2.30;;
35364;SDS011;21464;48.112;11.530;2022-11-20T09:11:23;2.13;;;1.93;;
35364;SDS011;21464;48.112;11.530;2022-11-20T09:13:55;2.30;;;2.10;;
35364;SDS011;21464;48.112;11.530;2022-11-20T09:16:25;2.33;;;2.13;;
35364;SDS011;21464;48.112;11.530;2022-11-20T09:18:54;2.40;;;2.10;;
35364;SDS011;21464;48.112;11.530;2022-11-20T09:21:21;1.80;;;1.70;;
35364;SDS011;21464;48.112;11.530;2022-11-20T09:23:48;1.77;;;1.67;;
35364;SDS011;21464;48.112;11.530;2022-11-20T09:26:14;1.60;;;1.50;;
35364;SDS011;21464;48.112;11.530;2022-11-20T09:28:40;2.23;;;2.03;;
35364;SDS011;21464;48.112;11.530;2022-11-20T09:31:07;1.90;;;1.80;;
35364;SDS011;21464;48.112;11.530;2022-11-20T09:33:33;1.97;;;1.73;;
35364;SDS011;21464;48.112;11.530;2022-11-20T09:35:59;1.70;;;1.63;;
35364;SDS011;21464;48.112;11.530;2022-11-20T09:38:25;2.17;;;1.97;;
35364;SDS011;21464;48.112;11.530;2022-11-20T09:46:08;2.90;;;2.10;;
35364;SDS011;21464;48.112;11.530;2022-11-20T09:48:55;1.80;;;1.63;;
35364;SDS011;21464;48.112;11.530;2022-11-20T09:54:12;5.03;;;3.70;;
35364;SDS011;21464;48.112;11.530;2022-11-20T09:56:41;1.90;;;1.80;;
35364;SDS011;21464;48.112;11.530;2022-11-20T09:59:08;1.83;;;1.70;;
35364;SDS011;21464;48.112;11.530;2022-11-20T10:01:39;2.00;;;1.83;;
35364;SDS011;21464;48.112;11.530;2022-11-20T10:06:37;1.57;;;1.47;;
35364;SDS011;21464;48.112;11.530;2022-11-20T10:17:22;1.47;;;1.37;;
35364;SDS011;21464;48.112;11.530;2022-11-20T10:25:19;2.20;;;1.90;;
35364;SDS011;21464;48.112;11.530;2022-11-20T10:30:15;1.60;;;1.50;;
35364;SDS011;21464;48.112;11.530;2022-11-20T10:33:17;1.33;;;1.23;;
35364;SDS011;21464;48.112;11.530;2022-11-20T10:35:35;1.60;;;1.50;;
35364;SDS011;21464;48.112;11.530;2022-11-20T10:38:03;1.40;;;1.30;;
35364;SDS011;21464;48.112;11.530;2022-11-20T10:40:33;1.20;;;1.20;;
35364;SDS011;21464;48.112;11.530;2022-11-20T10:48:10;1.43;;;1.30;;
35364;SDS011;21464;48.112;11.530;2022-11-20T10:50:37;2.03;;;1.43;;
35364;SDS011;21464;48.112;11.530;2022-11-20T10:53:15;1.50;;;1.40;;
35364;SDS011;21464;48.112;11.530;2022-11-20T10:55:45;1.10;;;1.10;;
35364;SDS011;21464;48.112;11.530;2022-11-20T11:00:38;1.40;;;1.30;;
35364;SDS011;21464;48.112;11.530;2022-11-20T11:03:07;1.60;;;1.50;;
35364;SDS011;21464;48.112;11.530;2022-11-20T11:05:44;1.57;;;1.37;;
35364;SDS011;21464;48.112;11.530;2022-11-20T11:08:15;1.57;;;1.47;;
35364;SDS011;21464;48.112;11.530;2022-11-20T11:13:23;2.53;;;1.40;;
35364;SDS011;21464;48.112;11.530;2022-11-20T11:15:50;1.67;;;1.50;;
35364;SDS011;21464;48.112;11.530;2022-11-20T11:18:32;1.40;;;1.30;;
35364;SDS011;21464;48.112;11.530;2022-11-20T11:20:59;1.60;;;1.40;;
35364;SDS011;21464;48.112;11.530;2022-11-20T11:23:47;2.43;;;1.70;;
35364;SDS011;21464;48.112;11.530;2022-11-20T11:26:21;1.47;;;1.40;;
35364;SDS011;21464;48.112;11.530;2022-11-20T11:28:55;1.70;;;1.60;;
35364;SDS011;21464;48.112;11.530;2022-11-20T11:31:31;1.37;;;1.30;;
35364;SDS011;21464;48.112;11.530;2022-11-20T11:34:07;1.50;;;1.40;;
35364;SDS011;21464;48.112;11.530;2022-11-20T11:36:34;1.37;;;1.27;;
35364;SDS011;21464;48.112;11.530;2022-11-20T11:39:00;3.27;;;1.47;;
35364;SDS011;21464;48.112;11.530;2022-11-20T11:41:28;1.77;;;1.50;;
35364;SDS011;21464;48.112;11.530;2022-11-20T11:43:58;1.63;;;1.53;;
35364;SDS011;21464;48.112;11.530;2022-11-20T11:46:49;1.60;;;1.50;;
35364;SDS011;21464;48.112;11.530;2022-11-20T11:49:18;1.50;;;1.27;;
35364;SDS011;21464;48.112;11.530;2022-11-20T11:54:15;1.20;;;1.20;;
35364;SDS011;21464;48.112;11.530;2022-11-20T11:56:43;1.70;;;1.60;;
35364;SDS011;21464;48.112;11.530;2022-11-20T11:59:11;2.23;;;1.60;;
35364;SDS011;21464;48.112;11.530;2022-11-20T12:01:45;1.80;;;1.70;;
35364;SDS011;21464;48.112;11.530;2022-11-20T12:04:17;1.70;;;1.60;;
35364;SDS011;21464;48.112;11.530;2022-11-20T12:06:46;1.40;;;1.30;;
35364;SDS011;21464;48.112;11.530;2022-11-20T12:09:12;1.50;;;1.40;;
35364;SDS011;21464;48.112;11.530;2022-11-20T12:12:03;1.73;;;1.63;;
35364;SDS011;21464;48.112;11.530;2022-11-20T12:14:27;1.50;;;1.40;;
35364;SDS011;21464;48.112;11.530;2022-11-20T12:16:57;1.80;;;1.67;;
35364;SDS011;21464;48.112;11.530;2022-11-20T12:19:23;1.90;;;1.80;;
35364;SDS011;21464;48.112;11.530;2022-11-20T12:24:30;1.73;;;1.70;;
35364;SDS011;21464;48.112;11.530;2022-11-20T12:39:50;1.70;;;1.30;;
35364;SDS011;21464;48.112;11.530;2022-11-20T12:53:48;1.90;;;1.63;;
35364;SDS011;21464;48.112;11.530;2022-11-20T12:56:23;1.70;;;1.60;;
35364;SDS011;21464;48.112;11.530;2022-11-20T13:01:40;1.60;;;1.50;;
35364;SDS011;21464;48.112;11.530;2022-11-20T13:06:45;1.63;;;1.53;;
35364;SDS011;21464;48.112;11.530;2022-11-20T13:09:12;1.60;;;1.50;;
35364;SDS011;21464;48.112;11.530;2022-11-20T13:17:00;1.93;;;1.80;;
35364;SDS011;21464;48.112;11.530;2022-11-20T13:19:28;2.13;;;2.03;;
35364;SDS011;21464;48.112;11.530;2022-11-20T13:21:55;2.63;;;2.30;;
35364;SDS011;21464;48.112;11.530;2022-11-20T13:27:00;2.50;;;2.30;;
35364;SDS011;21464;48.112;11.530;2022-11-20T13:29:26;2.03;;;1.90;;
35364;SDS011;21464;48.112;11.530;2022-11-20T13:32:00;2.40;;;2.17;;
35364;SDS011;21464;48.112;11.530;2022-11-20T13:34:27;2.23;;;2.13;;
35364;SDS011;21464;48.112;11.530;2022-11-20T13:36:54;2.47;;;2.27;;
35364;SDS011;21464;48.112;11.530;2022-11-20T13:39:27;1.90;;;1.80;;
35364;SDS011;21464;48.112;11.530;2022-11-20T13:41:55;2.63;;;1.93;;
35364;SDS011;21464;48.112;11.530;2022-11-20T13:46:53;2.10;;;2.00;;
35364;SDS011;21464;48.112;11.530;2022-11-20T13:51:51;2.03;;;1.93;;
35364;SDS011;21464;48.112;11.530;2022-11-20T13:59:57;1.87;;;1.77;;
35364;SDS011;21464;48.112;11.530;2022-11-20T14:02:25;1.70;;;1.60;;
35364;SDS011;21464;48.112;11.530;2022-11-20T14:04:52;2.03;;;1.83;;
35364;SDS011;21464;48.112;11.530;2022-11-20T14:07:20;1.90;;;1.80;;
35364;SDS011;21464;48.112;11.530;2022-11-20T14:12:17;1.73;;;1.47;;
35364;SDS011;21464;48.112;11.530;2022-11-20T14:14:51;1.90;;;1.80;;
35364;SDS011;21464;48.112;11.530;2022-11-20T14:17:18;2.10;;;2.00;;
35364;SDS011;21464;48.112;11.530;2022-11-20T14:19:44;2.50;;;2.00;;
35364;SDS011;21464;48.112;11.530;2022-11-20T14:22:24;1.60;;;1.50;;
35364;SDS011;21464;48.112;11.530;2022-11-20T14:25:01;2.53;;;1.93;;
35364;SDS011;21464;48.112;11.530;2022-11-20T14:27:27;2.40;;;1.80;;
35364;SDS011;21464;48.112;11.530;2022-11-20T14:29:54;1.70;;;1.60;;
35364;SDS011;21464;48.112;11.530;2022-11-20T14:32:21;1.70;;;1.60;;
35364;SDS011;21464;48.112;11.530;2022-11-20T14:34:49;1.80;;;1.70;;
35364;SDS011;21464;48.112;11.530;2022-11-20T14:37:35;2.30;;;1.67;;
35364;SDS011;21464;48.112;11.530;2022-11-20T14:40:02;2.53;;;2.03;;
35364;SDS011;21464;48.112;11.530;2022-11-20T14:42:28;1.67;;;1.57;;
35364;SDS011;21464;48.112;11.530;2022-11-20T14:44:55;2.07;;;1.70;;
35364;SDS011;21464;48.112;11.530;2022-11-20T14:47:22;1.20;;;1.13;;
35364;SDS011;21464;48.112;11.530;2022-11-20T14:49:49;1.03;;;1.03;;
35364;SDS011;21464;48.112;11.530;2022-11-20T14:52:17;1.37;;;0.90;;
35364;SDS011;21464;48.112;11.530;2022-11-20T14:54:44;0.90;;;0.90;;
35364;SDS011;21464;48.112;11.530;2022-11-20T14:57:19;1.50;;;1.40;;
35364;SDS011;21464;48.112;11.530;2022-11-20T14:59:46;1.10;;;1.00;;
35364;SDS011;21464;48.112;11.530;2022-11-20T15:02:11;1.80;;;0.90;;
35364;SDS011;21464;48.112;11.530;2022-11-20T15:05:12;1.40;;;1.30;;
35364;SDS011;21464;48.112;11.530;2022-11-20T15:07:32;1.17;;;1.17;;
35364;SDS011;21464;48.112;11.530;2022-11-20T15:12:27;1.00;;;1.00;;
35364;SDS011;21464;48.112;11.530;2022-11-20T15:14:53;1.60;;;1.17;;
35364;SDS011;21464;48.112;11.530;2022-11-20T15:17:19;1.23;;;1.23;;
35364;SDS011;21464;48.112;11.530;2022-11-20T15:19:45;0.90;;;0.90;;
35364;SDS011;21464;48.112;11.530;2022-11-20T15:22:11;1.47;;;1.37;;
35364;SDS011;21464;48.112;11.530;2022-11-20T15:24:38;1.47;;;1.37;;
35364;SDS011;21464;48.112;11.530;2022-11-20T15:27:04;1.60;;;1.50;;
35364;SDS011;21464;48.112;11.530;2022-11-20T15:29:30;1.40;;;1.30;;
35364;SDS011;21464;48.112;11.530;2022-11-20T15:31:56;1.70;;;1.20;;
35364;SDS011;21464;48.112;11.530;2022-11-20T15:34:22;1.47;;;1.37;;
35364;SDS011;21464;48.112;11.530;2022-11-20T15:36:48;1.30;;;1.30;;
35364;SDS011;21464;48.112;11.530;2022-11-20T15:39:14;1.53;;;1.43;;
35364;SDS011;21464;48.112;11.530;2022-11-20T15:41:40;1.50;;;1.40;;
35364;SDS011;21464;48.112;11.530;2022-11-20T15:44:06;1.83;;;1.70;;
35364;SDS011;21464;48.112;11.530;2022-11-20T15:46:32;1.93;;;1.80;;
35364;SDS011;21464;48.112;11.530;2022-11-20T15:49:03;2.60;;;1.80;;
35364;SDS011;21464;48.112;11.530;2022-11-20T15:51:30;2.73;;;1.87;;
35364;SDS011;21464;48.112;11.530;2022-11-20T15:53:57;1.63;;;1.53;;
35364;SDS011;21464;48.112;11.530;2022-11-20T15:56:23;1.70;;;1.60;;
35364;SDS011;21464;48.112;11.530;2022-11-20T15:58:49;3.33;;;2.30;;
35364;SDS011;21464;48.112;11.530;2022-11-20T16:01:16;4.43;;;2.03;;
35364;SDS011;21464;48.112;11.530;2022-11-20T16:03:42;2.80;;;1.97;;
35364;SDS011;21464;48.112;11.530;2022-11-20T16:06:08;2.20;;;2.00;;
35364;SDS011;21464;48.112;11.530;2022-11-20T16:08:34;2.53;;;1.77;;
35364;SDS011;21464;48.112;11.530;2022-11-20T16:11:00;2.07;;;1.73;;
35364;SDS011;21464;48.112;11.530;2022-11-20T16:13:26;3.00;;;2.00;;
35364;SDS011;21464;48.112;11.530;2022-11-20T16:16:44;1.87;;;1.77;;
35364;SDS011;21464;48.112;11.530;2022-11-20T16:19:04;2.53;;;2.33;;
35364;SDS011;21464;48.112;11.530;2022-11-20T16:21:30;2.87;;;2.57;;
35364;SDS011;21464;48.112;11.530;2022-11-20T16:23:57;2.30;;;2.10;;